My Meet Scores
Paige Brandt, Kinetic Kids LLC - MyMeetScores.com
Top100 | Top Teams | Upcoming Meets | Completed Meets | Latest | Add Scores | Help| Support | Bookmark and Share

Paige Brandt, Kinetic Kids LLC
Personal Bests
LevelVault BarsBeamFloorAA
XB8.8008.700 9.3008.70035.500
XD9.1759.475 8.9508.55035.300
XG9.3509.700 9.5509.65037.500
XP9.4008.750 9.3259.30035.750
XS9.6009.400 9.3509.35037.600
Meet Scores
Date Meet Team Session Level Division Vault Bars Beam Floor AA
2020-02-28 2020 February Flip Invitational Kinetic Kids LLC 9 XD 15 under 9.175 4 9.475 1 8.300 9 8.350 9 35.300 6
2020-01-24 2020 Kinetic Kids Invitational Kinetic Kids LLC 8 XD Younger 8.950 2 8.400 5 7.600 6 8.550 4T 33.500 5
2019-12-06 Rhode Island Invitational Kinetic Kids LLC BS4 XD intermedia 8.675 5T 8.000 8 8.350 5T 8.250 8T 33.275 6
2019-11-09 2019 PHS Turkey Tumble Kinetic Kids LLC 4 XD All 8.550 1 7.850 2 8.950 1 7.700 2 33.050 2
2019-04-27 Xcel Gold, Platinum, Diamond State Championsh Kinetic Kids LLC 7 XP Sr A 9.400 8T 7.600 27 9.325 10T 9.125 19T 35.450 19
2019-02-22 2019 February Flip Invitational Kinetic Kids LLC 7 XP 14 yr old 9.200 3T 8.750 10T 8.700 13 9.000 16T 35.650 11
2019-01-25 Kinetic Kids Invitational 2019 CT-Unattached 4 XP Sr A 8.925 5 8.350 4 9.300 3 8.950 5T 35.525 4
2018-12-15 Reindeer Games 2018 Kinetic Kids LLC 5 XP Inter 8.850 6T 8.400 10T 9.200 1 9.300 2 35.750 6
2018-11-10 2018 Turkey Tumble Kinetic Kids LLC 4 XP All 8.950 3T 7.750 5T 8.625 6 8.650 5T 33.975 5
2018-04-21 2018 Connecticut XG, XP, XD State Championships Kinetic Kids LLC 5 XG Jr.E 9.150 8T 8.950 24T 8.500 39T 8.875 41 35.475 28
2018-03-01 Holiday Costume Cup 2018 Kinetic Kids LLC 10 XG Sr A 9.300 1 9.000 6 9.000 4 9.050 4 36.350 2
2018-02-23 2018 February Flip Invitational Kinetic Kids LLC 4 XG 13 yr old 9.350 2 9.700 2 8.725 6 9.375 3 37.150 2T
2018-01-19 Kinetic Kids Invitational Kinetic Kids LLC 5 XG Sr A 9.150 1 9.125 2 8.050 9 8.950 6 35.275 4
2017-12-15 Reindeer Games 2017 Kinetic Kids LLC 2 XG Inter 9.100 1 9.300 3 9.150 6 8.700 10T 36.250 5
2017-11-10 2017 Phs Turkey Tumble Kinetic Kids LLC 2 XG Older 9.275 1 9.050 3 8.350 3 8.850 5 35.525 2
2017-04-29 Xcel Gold, Platinum, Diamond State Championships Kinetic Kids LLC 6 XG Jr. A 9.100 1 9.400 1T 9.550 3 9.000 6 37.050 1
2017-03-02 2017 Holiday Costume Cup Kinetic Kids LLC 6 XG Older 9.050 2 8.850 5 9.025 3 9.325 2T 36.250 2
2017-02-23 2017 February Flip Invitational Kinetic Kids LLC 4 XG 12 Yrs 9.150 3 9.650 2T 9.050 5 9.650 2 37.500 2T
2016-04-30 2016 Connecticut XS State Championships Kinetic Kids LLC All XS JrD 8.800 6 9.325 4 9.275 7T 9.350 2 36.750 4
2016-02-26 2016 February Flip Kinetic Kids LLC 1 XS 11 yrs. 9.600 1 9.400 2 9.350 1T 9.250 5 37.600 1
2015-12-11 2015 Reindeer Games Kinetic Kids LLC 2 XS Inter 9.500 1 8.500 18 9.150 7T 9.250 3T 36.400 5T
2014-12-19 Reindeer Games 2014 Kinetic Kids LLC 2 XB Inter 8.800 3T 8.700 10 9.300 5T 8.700 10 35.500 7
Get your scores on
a t-shirt, pin, or hoodie

www.lazysuits.com